sensor_id;sensor_type;location;lat;lon;timestamp;P1;durP1;ratioP1;P2;durP2;ratioP2
1649;SDS011;822;53.670;8.676;2023-05-10T00:00:06;3.87;;;3.57;;
1649;SDS011;822;53.670;8.676;2023-05-10T00:02:35;3.70;;;3.40;;
1649;SDS011;822;53.670;8.676;2023-05-10T00:05:02;4.77;;;4.00;;
1649;SDS011;822;53.670;8.676;2023-05-10T00:07:30;4.47;;;4.07;;
1649;SDS011;822;53.670;8.676;2023-05-10T00:09:57;3.57;;;3.27;;
1649;SDS011;822;53.670;8.676;2023-05-10T00:12:24;4.37;;;3.57;;
1649;SDS011;822;53.670;8.676;2023-05-10T00:14:51;3.83;;;3.50;;
1649;SDS011;822;53.670;8.676;2023-05-10T00:17:18;3.63;;;3.33;;
1649;SDS011;822;53.670;8.676;2023-05-10T00:19:47;3.90;;;3.27;;
1649;SDS011;822;53.670;8.676;2023-05-10T00:22:14;3.87;;;3.57;;
1649;SDS011;822;53.670;8.676;2023-05-10T00:24:41;2.67;;;2.47;;
1649;SDS011;822;53.670;8.676;2023-05-10T00:27:08;2.20;;;2.07;;
1649;SDS011;822;53.670;8.676;2023-05-10T00:29:35;2.70;;;2.50;;
1649;SDS011;822;53.670;8.676;2023-05-10T00:32:02;2.00;;;1.90;;
1649;SDS011;822;53.670;8.676;2023-05-10T00:34:31;2.17;;;2.07;;
1649;SDS011;822;53.670;8.676;2023-05-10T00:36:59;1.63;;;1.40;;
1649;SDS011;822;53.670;8.676;2023-05-10T00:39:26;1.73;;;1.63;;
1649;SDS011;822;53.670;8.676;2023-05-10T00:41:53;1.20;;;1.10;;
1649;SDS011;822;53.670;8.676;2023-05-10T00:44:21;3.33;;;1.43;;
1649;SDS011;822;53.670;8.676;2023-05-10T00:46:48;1.60;;;1.50;;
1649;SDS011;822;53.670;8.676;2023-05-10T00:49:15;1.20;;;1.20;;
1649;SDS011;822;53.670;8.676;2023-05-10T00:51:43;3.93;;;1.77;;
1649;SDS011;822;53.670;8.676;2023-05-10T00:54:12;1.73;;;1.43;;
1649;SDS011;822;53.670;8.676;2023-05-10T00:56:41;1.50;;;1.40;;
1649;SDS011;822;53.670;8.676;2023-05-10T00:59:08;1.47;;;1.37;;
1649;SDS011;822;53.670;8.676;2023-05-10T01:01:36;1.80;;;1.27;;
1649;SDS011;822;53.670;8.676;2023-05-10T01:04:04;0.90;;;0.90;;
1649;SDS011;822;53.670;8.676;2023-05-10T01:06:31;1.10;;;1.10;;
1649;SDS011;822;53.670;8.676;2023-05-10T01:08:58;1.43;;;1.33;;
1649;SDS011;822;53.670;8.676;2023-05-10T01:11:27;1.63;;;1.53;;
1649;SDS011;822;53.670;8.676;2023-05-10T01:13:54;1.47;;;1.37;;
1649;SDS011;822;53.670;8.676;2023-05-10T01:16:23;1.30;;;1.20;;
1649;SDS011;822;53.670;8.676;2023-05-10T01:18:50;2.10;;;1.43;;
1649;SDS011;822;53.670;8.676;2023-05-10T01:21:21;1.20;;;1.10;;
1649;SDS011;822;53.670;8.676;2023-05-10T01:24:09;1.17;;;1.13;;
1649;SDS011;822;53.670;8.676;2023-05-10T01:26:57;1.63;;;1.20;;
1649;SDS011;822;53.670;8.676;2023-05-10T01:29:47;1.67;;;1.57;;
1649;SDS011;822;53.670;8.676;2023-05-10T01:32:53;1.50;;;1.37;;
1649;SDS011;822;53.670;8.676;2023-05-10T01:35:26;2.23;;;2.03;;
1649;SDS011;822;53.670;8.676;2023-05-10T01:37:59;1.10;;;1.10;;
1649;SDS011;822;53.670;8.676;2023-05-10T01:40:32;1.27;;;1.20;;
1649;SDS011;822;53.670;8.676;2023-05-10T01:43:04;1.73;;;1.63;;
1649;SDS011;822;53.670;8.676;2023-05-10T01:45:50;1.53;;;1.43;;
1649;SDS011;822;53.670;8.676;2023-05-10T01:48:25;1.70;;;1.60;;
1649;SDS011;822;53.670;8.676;2023-05-10T01:50:54;1.20;;;1.20;;
1649;SDS011;822;53.670;8.676;2023-05-10T01:53:24;1.70;;;1.50;;
1649;SDS011;822;53.670;8.676;2023-05-10T01:55:55;1.43;;;1.30;;
1649;SDS011;822;53.670;8.676;2023-05-10T01:58:25;1.23;;;1.13;;
1649;SDS011;822;53.670;8.676;2023-05-10T02:00:56;1.27;;;1.20;;
1649;SDS011;822;53.670;8.676;2023-05-10T02:03:27;1.40;;;1.40;;
1649;SDS011;822;53.670;8.676;2023-05-10T02:05:56;1.30;;;1.20;;
1649;SDS011;822;53.670;8.676;2023-05-10T02:08:25;3.83;;;1.67;;
1649;SDS011;822;53.670;8.676;2023-05-10T02:10:54;1.53;;;1.40;;
1649;SDS011;822;53.670;8.676;2023-05-10T02:13:25;1.73;;;1.63;;
1649;SDS011;822;53.670;8.676;2023-05-10T02:15:54;1.27;;;1.23;;
1649;SDS011;822;53.670;8.676;2023-05-10T02:18:23;1.40;;;1.30;;
1649;SDS011;822;53.670;8.676;2023-05-10T02:20:54;1.30;;;1.20;;
1649;SDS011;822;53.670;8.676;2023-05-10T02:23:21;1.47;;;1.33;;
1649;SDS011;822;53.670;8.676;2023-05-10T02:25:50;1.70;;;1.60;;
1649;SDS011;822;53.670;8.676;2023-05-10T02:28:18;1.53;;;1.43;;
1649;SDS011;822;53.670;8.676;2023-05-10T02:30:47;1.43;;;1.40;;
1649;SDS011;822;53.670;8.676;2023-05-10T02:33:14;1.63;;;1.53;;
1649;SDS011;822;53.670;8.676;2023-05-10T02:35:42;1.40;;;1.37;;
1649;SDS011;822;53.670;8.676;2023-05-10T02:38:11;1.53;;;1.43;;
1649;SDS011;822;53.670;8.676;2023-05-10T02:40:39;1.30;;;1.30;;
1649;SDS011;822;53.670;8.676;2023-05-10T02:43:09;1.30;;;1.20;;
1649;SDS011;822;53.670;8.676;2023-05-10T02:45:40;1.33;;;1.23;;
1649;SDS011;822;53.670;8.676;2023-05-10T02:48:13;1.73;;;1.63;;
1649;SDS011;822;53.670;8.676;2023-05-10T02:50:41;1.30;;;1.20;;
1649;SDS011;822;53.670;8.676;2023-05-10T02:53:18;1.77;;;1.67;;
1649;SDS011;822;53.670;8.676;2023-05-10T02:55:49;1.70;;;1.60;;
1649;SDS011;822;53.670;8.676;2023-05-10T02:58:20;1.90;;;1.70;;
1649;SDS011;822;53.670;8.676;2023-05-10T03:00:48;2.53;;;2.40;;
1649;SDS011;822;53.670;8.676;2023-05-10T03:03:15;1.60;;;1.50;;
1649;SDS011;822;53.670;8.676;2023-05-10T03:05:42;1.80;;;1.70;;
1649;SDS011;822;53.670;8.676;2023-05-10T03:08:09;1.90;;;1.80;;
1649;SDS011;822;53.670;8.676;2023-05-10T03:10:41;1.70;;;1.60;;
1649;SDS011;822;53.670;8.676;2023-05-10T03:13:20;2.03;;;1.93;;
1649;SDS011;822;53.670;8.676;2023-05-10T03:15:56;2.00;;;1.90;;
1649;SDS011;822;53.670;8.676;2023-05-10T03:18:28;1.47;;;1.37;;
1649;SDS011;822;53.670;8.676;2023-05-10T03:21:01;2.03;;;1.87;;
1649;SDS011;822;53.670;8.676;2023-05-10T03:23:34;1.63;;;1.53;;
1649;SDS011;822;53.670;8.676;2023-05-10T03:26:07;1.90;;;1.70;;
1649;SDS011;822;53.670;8.676;2023-05-10T03:28:35;1.80;;;1.70;;
1649;SDS011;822;53.670;8.676;2023-05-10T03:31:03;2.23;;;2.13;;
1649;SDS011;822;53.670;8.676;2023-05-10T03:33:32;2.53;;;2.33;;
1649;SDS011;822;53.670;8.676;2023-05-10T03:35:59;1.77;;;1.67;;
1649;SDS011;822;53.670;8.676;2023-05-10T03:38:26;1.80;;;1.70;;
1649;SDS011;822;53.670;8.676;2023-05-10T03:40:53;1.77;;;1.67;;
1649;SDS011;822;53.670;8.676;2023-05-10T03:43:22;2.10;;;1.93;;
1649;SDS011;822;53.670;8.676;2023-05-10T03:45:49;1.87;;;1.77;;
1649;SDS011;822;53.670;8.676;2023-05-10T03:48:16;1.90;;;1.80;;
1649;SDS011;822;53.670;8.676;2023-05-10T03:50:43;1.83;;;1.73;;
1649;SDS011;822;53.670;8.676;2023-05-10T03:53:10;1.70;;;1.60;;
1649;SDS011;822;53.670;8.676;2023-05-10T03:55:38;2.10;;;2.00;;
1649;SDS011;822;53.670;8.676;2023-05-10T03:58:05;1.87;;;1.77;;
1649;SDS011;822;53.670;8.676;2023-05-10T04:00:34;2.17;;;2.07;;
1649;SDS011;822;53.670;8.676;2023-05-10T04:03:01;1.70;;;1.60;;
1649;SDS011;822;53.670;8.676;2023-05-10T04:05:28;1.90;;;1.80;;
1649;SDS011;822;53.670;8.676;2023-05-10T04:07:55;1.70;;;1.60;;
1649;SDS011;822;53.670;8.676;2023-05-10T04:10:23;1.70;;;1.60;;
1649;SDS011;822;53.670;8.676;2023-05-10T04:12:50;2.13;;;1.93;;
1649;SDS011;822;53.670;8.676;2023-05-10T04:15:17;1.97;;;1.77;;
1649;SDS011;822;53.670;8.676;2023-05-10T04:17:45;2.03;;;1.93;;
1649;SDS011;822;53.670;8.676;2023-05-10T04:20:13;1.87;;;1.77;;
1649;SDS011;822;53.670;8.676;2023-05-10T04:22:40;7.30;;;2.20;;
1649;SDS011;822;53.670;8.676;2023-05-10T04:25:07;1.67;;;1.57;;
1649;SDS011;822;53.670;8.676;2023-05-10T04:27:35;1.80;;;1.70;;
1649;SDS011;822;53.670;8.676;2023-05-10T04:30:02;1.90;;;1.80;;
1649;SDS011;822;53.670;8.676;2023-05-10T04:32:30;1.90;;;1.80;;
1649;SDS011;822;53.670;8.676;2023-05-10T04:34:59;1.70;;;1.60;;
1649;SDS011;822;53.670;8.676;2023-05-10T04:37:28;2.37;;;2.17;;
1649;SDS011;822;53.670;8.676;2023-05-10T04:39:56;2.30;;;2.10;;
1649;SDS011;822;53.670;8.676;2023-05-10T04:42:25;2.00;;;1.80;;
1649;SDS011;822;53.670;8.676;2023-05-10T04:44:52;2.33;;;2.23;;
1649;SDS011;822;53.670;8.676;2023-05-10T04:47:19;2.23;;;2.13;;
1649;SDS011;822;53.670;8.676;2023-05-10T04:49:46;3.17;;;1.87;;
1649;SDS011;822;53.670;8.676;2023-05-10T04:52:14;2.07;;;1.97;;
1649;SDS011;822;53.670;8.676;2023-05-10T04:54:43;2.07;;;1.90;;
1649;SDS011;822;53.670;8.676;2023-05-10T04:57:10;2.93;;;2.37;;
1649;SDS011;822;53.670;8.676;2023-05-10T04:59:37;2.10;;;2.00;;
1649;SDS011;822;53.670;8.676;2023-05-10T05:02:04;4.20;;;2.03;;
1649;SDS011;822;53.670;8.676;2023-05-10T05:04:32;2.27;;;2.17;;
1649;SDS011;822;53.670;8.676;2023-05-10T05:06:59;2.03;;;1.93;;
1649;SDS011;822;53.670;8.676;2023-05-10T05:09:27;2.37;;;2.27;;
1649;SDS011;822;53.670;8.676;2023-05-10T05:11:54;1.70;;;1.60;;
1649;SDS011;822;53.670;8.676;2023-05-10T05:14:21;2.30;;;2.17;;
1649;SDS011;822;53.670;8.676;2023-05-10T05:16:50;2.27;;;2.07;;
1649;SDS011;822;53.670;8.676;2023-05-10T05:19:17;2.63;;;2.43;;
1649;SDS011;822;53.670;8.676;2023-05-10T05:21:44;2.67;;;2.47;;
1649;SDS011;822;53.670;8.676;2023-05-10T05:24:11;2.50;;;2.30;;
1649;SDS011;822;53.670;8.676;2023-05-10T05:26:40;2.10;;;1.83;;
1649;SDS011;822;53.670;8.676;2023-05-10T05:29:07;2.40;;;2.20;;
1649;SDS011;822;53.670;8.676;2023-05-10T05:31:34;2.50;;;2.30;;
1649;SDS011;822;53.670;8.676;2023-05-10T05:34:01;2.00;;;1.90;;
1649;SDS011;822;53.670;8.676;2023-05-10T05:36:28;3.37;;;3.07;;
1649;SDS011;822;53.670;8.676;2023-05-10T05:38:56;2.40;;;2.20;;
1649;SDS011;822;53.670;8.676;2023-05-10T05:41:23;2.10;;;2.00;;
1649;SDS011;822;53.670;8.676;2023-05-10T05:43:52;2.50;;;1.90;;
1649;SDS011;822;53.670;8.676;2023-05-10T05:46:19;2.60;;;2.40;;
1649;SDS011;822;53.670;8.676;2023-05-10T05:48:46;2.30;;;2.20;;
1649;SDS011;822;53.670;8.676;2023-05-10T05:51:13;2.63;;;2.43;;
1649;SDS011;822;53.670;8.676;2023-05-10T05:53:40;2.37;;;2.20;;
1649;SDS011;822;53.670;8.676;2023-05-10T05:56:08;2.37;;;2.27;;
1649;SDS011;822;53.670;8.676;2023-05-10T05:58:35;2.43;;;2.23;;
1649;SDS011;822;53.670;8.676;2023-05-10T06:01:03;2.60;;;2.40;;
1649;SDS011;822;53.670;8.676;2023-05-10T06:03:31;2.10;;;2.00;;
1649;SDS011;822;53.670;8.676;2023-05-10T06:05:58;3.07;;;2.87;;
1649;SDS011;822;53.670;8.676;2023-05-10T06:08:25;2.37;;;2.17;;
1649;SDS011;822;53.670;8.676;2023-05-10T06:10:52;2.77;;;2.57;;
1649;SDS011;822;53.670;8.676;2023-05-10T06:13:19;3.07;;;2.87;;
1649;SDS011;822;53.670;8.676;2023-05-10T06:15:47;2.93;;;2.43;;
1649;SDS011;822;53.670;8.676;2023-05-10T06:18:15;3.23;;;2.93;;
1649;SDS011;822;53.670;8.676;2023-05-10T06:20:42;3.00;;;2.80;;
1649;SDS011;822;53.670;8.676;2023-05-10T06:23:09;3.10;;;2.90;;
1649;SDS011;822;53.670;8.676;2023-05-10T06:25:36;3.27;;;2.93;;
1649;SDS011;822;53.670;8.676;2023-05-10T06:28:03;3.57;;;3.27;;
1649;SDS011;822;53.670;8.676;2023-05-10T06:30:31;3.27;;;2.97;;
1649;SDS011;822;53.670;8.676;2023-05-10T06:33:01;2.70;;;2.50;;
1649;SDS011;822;53.670;8.676;2023-05-10T06:35:30;2.50;;;2.30;;
1649;SDS011;822;53.670;8.676;2023-05-10T06:38:01;3.30;;;3.00;;
1649;SDS011;822;53.670;8.676;2023-05-10T06:40:28;2.90;;;2.47;;
1649;SDS011;822;53.670;8.676;2023-05-10T06:42:55;3.27;;;2.97;;
1649;SDS011;822;53.670;8.676;2023-05-10T06:45:25;3.33;;;3.03;;
1649;SDS011;822;53.670;8.676;2023-05-10T06:47:53;3.53;;;3.23;;
1649;SDS011;822;53.670;8.676;2023-05-10T06:50:26;3.70;;;3.40;;
1649;SDS011;822;53.670;8.676;2023-05-10T06:52:54;4.03;;;2.90;;
1649;SDS011;822;53.670;8.676;2023-05-10T06:55:21;3.53;;;3.23;;
1649;SDS011;822;53.670;8.676;2023-05-10T06:57:48;2.97;;;2.77;;
1649;SDS011;822;53.670;8.676;2023-05-10T07:00:16;2.67;;;2.53;;
1649;SDS011;822;53.670;8.676;2023-05-10T07:02:44;3.20;;;3.00;;
1649;SDS011;822;53.670;8.676;2023-05-10T07:05:11;3.73;;;3.43;;
1649;SDS011;822;53.670;8.676;2023-05-10T07:07:38;3.63;;;3.33;;
1649;SDS011;822;53.670;8.676;2023-05-10T07:10:07;3.27;;;3.07;;
1649;SDS011;822;53.670;8.676;2023-05-10T07:12:35;4.03;;;3.50;;
1649;SDS011;822;53.670;8.676;2023-05-10T07:15:03;3.70;;;3.40;;
1649;SDS011;822;53.670;8.676;2023-05-10T07:17:31;3.70;;;3.40;;
1649;SDS011;822;53.670;8.676;2023-05-10T07:19:58;4.30;;;3.60;;
1649;SDS011;822;53.670;8.676;2023-05-10T07:22:25;3.63;;;3.33;;
1649;SDS011;822;53.670;8.676;2023-05-10T07:24:53;4.03;;;3.73;;
1649;SDS011;822;53.670;8.676;2023-05-10T07:27:21;3.33;;;2.57;;
1649;SDS011;822;53.670;8.676;2023-05-10T07:29:49;3.77;;;3.37;;
1649;SDS011;822;53.670;8.676;2023-05-10T07:32:16;3.30;;;3.03;;
1649;SDS011;822;53.670;8.676;2023-05-10T07:34:43;4.23;;;3.60;;
1649;SDS011;822;53.670;8.676;2023-05-10T07:37:10;4.60;;;3.70;;
1649;SDS011;822;53.670;8.676;2023-05-10T07:39:37;4.43;;;4.03;;
1649;SDS011;822;53.670;8.676;2023-05-10T07:42:04;4.00;;;3.70;;
1649;SDS011;822;53.670;8.676;2023-05-10T07:44:32;4.87;;;4.47;;
1649;SDS011;822;53.670;8.676;2023-05-10T07:47:00;4.23;;;3.93;;
1649;SDS011;822;53.670;8.676;2023-05-10T07:49:27;3.80;;;3.10;;
1649;SDS011;822;53.670;8.676;2023-05-10T07:51:54;4.73;;;3.20;;
1649;SDS011;822;53.670;8.676;2023-05-10T07:54:21;4.03;;;3.67;;
1649;SDS011;822;53.670;8.676;2023-05-10T07:56:48;4.60;;;4.20;;
1649;SDS011;822;53.670;8.676;2023-05-10T07:59:17;4.17;;;3.80;;
1649;SDS011;822;53.670;8.676;2023-05-10T08:01:45;3.30;;;3.10;;
1649;SDS011;822;53.670;8.676;2023-05-10T08:04:13;4.13;;;3.83;;
1649;SDS011;822;53.670;8.676;2023-05-10T08:06:40;4.50;;;3.37;;
1649;SDS011;822;53.670;8.676;2023-05-10T08:09:08;4.70;;;4.30;;
1649;SDS011;822;53.670;8.676;2023-05-10T08:11:36;3.67;;;3.37;;
1649;SDS011;822;53.670;8.676;2023-05-10T08:14:03;4.10;;;3.80;;
1649;SDS011;822;53.670;8.676;2023-05-10T08:16:30;4.57;;;4.07;;
1649;SDS011;822;53.670;8.676;2023-05-10T08:18:58;4.63;;;4.23;;
1649;SDS011;822;53.670;8.676;2023-05-10T08:21:26;4.73;;;4.33;;
1649;SDS011;822;53.670;8.676;2023-05-10T08:23:53;4.57;;;4.10;;
1649;SDS011;822;53.670;8.676;2023-05-10T08:26:20;3.50;;;3.20;;
1649;SDS011;822;53.670;8.676;2023-05-10T08:28:47;3.60;;;3.30;;
1649;SDS011;822;53.670;8.676;2023-05-10T08:31:14;4.70;;;4.23;;
1649;SDS011;822;53.670;8.676;2023-05-10T08:33:43;4.07;;;3.77;;
1649;SDS011;822;53.670;8.676;2023-05-10T08:36:18;4.37;;;4.07;;
1649;SDS011;822;53.670;8.676;2023-05-10T08:38:46;4.70;;;4.30;;
1649;SDS011;822;53.670;8.676;2023-05-10T08:41:16;3.90;;;3.40;;
1649;SDS011;822;53.670;8.676;2023-05-10T08:43:46;6.63;;;5.57;;
1649;SDS011;822;53.670;8.676;2023-05-10T08:48:43;5.77;;;4.70;;
1649;SDS011;822;53.670;8.676;2023-05-10T08:51:11;4.60;;;4.20;;
1649;SDS011;822;53.670;8.676;2023-05-10T08:53:43;5.20;;;4.73;;
1649;SDS011;822;53.670;8.676;2023-05-10T08:56:10;4.10;;;3.70;;
1649;SDS011;822;53.670;8.676;2023-05-10T08:58:38;5.37;;;4.87;;
1649;SDS011;822;53.670;8.676;2023-05-10T09:01:05;4.77;;;4.30;;
1649;SDS011;822;53.670;8.676;2023-05-10T09:03:32;5.40;;;4.90;;
1649;SDS011;822;53.670;8.676;2023-05-10T09:06:00;4.73;;;4.30;;
1649;SDS011;822;53.670;8.676;2023-05-10T09:08:27;4.70;;;4.20;;
1649;SDS011;822;53.670;8.676;2023-05-10T09:10:57;4.90;;;4.50;;
1649;SDS011;822;53.670;8.676;2023-05-10T09:13:29;4.60;;;4.20;;
1649;SDS011;822;53.670;8.676;2023-05-10T09:16:01;5.03;;;4.63;;
1649;SDS011;822;53.670;8.676;2023-05-10T09:18:31;4.93;;;4.53;;
1649;SDS011;822;53.670;8.676;2023-05-10T09:21:00;5.57;;;5.07;;
1649;SDS011;822;53.670;8.676;2023-05-10T09:23:29;4.27;;;3.97;;
1649;SDS011;822;53.670;8.676;2023-05-10T09:26:05;5.67;;;5.17;;
1649;SDS011;822;53.670;8.676;2023-05-10T09:28:33;5.00;;;4.47;;
1649;SDS011;822;53.670;8.676;2023-05-10T09:31:16;5.30;;;4.57;;
1649;SDS011;822;53.670;8.676;2023-05-10T09:33:48;4.90;;;4.47;;
1649;SDS011;822;53.670;8.676;2023-05-10T09:36:19;4.10;;;3.80;;
1649;SDS011;822;53.670;8.676;2023-05-10T09:38:47;5.40;;;4.83;;
1649;SDS011;822;53.670;8.676;2023-05-10T09:41:19;5.37;;;4.77;;
1649;SDS011;822;53.670;8.676;2023-05-10T09:43:49;5.63;;;4.00;;
1649;SDS011;822;53.670;8.676;2023-05-10T09:46:24;5.20;;;4.70;;
1649;SDS011;822;53.670;8.676;2023-05-10T09:48:53;5.27;;;4.77;;
1649;SDS011;822;53.670;8.676;2023-05-10T09:51:21;4.67;;;4.23;;
1649;SDS011;822;53.670;8.676;2023-05-10T09:53:52;4.10;;;3.70;;
1649;SDS011;822;53.670;8.676;2023-05-10T09:56:41;5.33;;;4.80;;
1649;SDS011;822;53.670;8.676;2023-05-10T09:59:12;5.90;;;4.10;;
1649;SDS011;822;53.670;8.676;2023-05-10T10:01:41;4.73;;;4.30;;
1649;SDS011;822;53.670;8.676;2023-05-10T10:04:09;3.90;;;3.60;;
1649;SDS011;822;53.670;8.676;2023-05-10T10:06:40;4.07;;;3.40;;
1649;SDS011;822;53.670;8.676;2023-05-10T10:09:08;4.43;;;3.10;;
1649;SDS011;822;53.670;8.676;2023-05-10T10:11:37;3.30;;;3.00;;
1649;SDS011;822;53.670;8.676;2023-05-10T10:14:11;4.13;;;3.83;;
1649;SDS011;822;53.670;8.676;2023-05-10T10:16:40;3.33;;;3.03;;
1649;SDS011;822;53.670;8.676;2023-05-10T10:19:07;3.53;;;3.20;;
1649;SDS011;822;53.670;8.676;2023-05-10T10:21:36;3.17;;;2.97;;
1649;SDS011;822;53.670;8.676;2023-05-10T10:24:04;4.27;;;3.87;;
1649;SDS011;822;53.670;8.676;2023-05-10T10:26:37;4.37;;;3.80;;
1649;SDS011;822;53.670;8.676;2023-05-10T10:29:12;4.47;;;3.30;;
1649;SDS011;822;53.670;8.676;2023-05-10T10:31:52;4.33;;;3.90;;
1649;SDS011;822;53.670;8.676;2023-05-10T10:34:32;4.10;;;3.70;;
1649;SDS011;822;53.670;8.676;2023-05-10T10:37:04;3.27;;;2.97;;
1649;SDS011;822;53.670;8.676;2023-05-10T10:39:34;3.43;;;3.13;;
1649;SDS011;822;53.670;8.676;2023-05-10T10:42:06;3.03;;;2.73;;
1649;SDS011;822;53.670;8.676;2023-05-10T10:44:38;2.87;;;2.67;;
1649;SDS011;822;53.670;8.676;2023-05-10T10:47:20;3.50;;;3.20;;
1649;SDS011;822;53.670;8.676;2023-05-10T10:50:05;3.87;;;3.57;;
1649;SDS011;822;53.670;8.676;2023-05-10T10:52:35;3.60;;;3.23;;
1649;SDS011;822;53.670;8.676;2023-05-10T10:55:11;2.53;;;2.33;;
1649;SDS011;822;53.670;8.676;2023-05-10T10:57:47;3.27;;;2.97;;
1649;SDS011;822;53.670;8.676;2023-05-10T11:00:22;4.63;;;3.40;;
1649;SDS011;822;53.670;8.676;2023-05-10T11:02:58;3.23;;;2.93;;
1649;SDS011;822;53.670;8.676;2023-05-10T11:05:36;3.70;;;2.90;;
1649;SDS011;822;53.670;8.676;2023-05-10T11:08:11;2.83;;;2.50;;
1649;SDS011;822;53.670;8.676;2023-05-10T11:10:51;2.27;;;2.07;;
1649;SDS011;822;53.670;8.676;2023-05-10T11:13:30;2.93;;;2.47;;
1649;SDS011;822;53.670;8.676;2023-05-10T11:16:09;2.70;;;2.50;;
1649;SDS011;822;53.670;8.676;2023-05-10T11:18:41;2.33;;;2.13;;
1649;SDS011;822;53.670;8.676;2023-05-10T11:21:20;2.83;;;2.63;;
1649;SDS011;822;53.670;8.676;2023-05-10T11:23:51;2.80;;;2.60;;
1649;SDS011;822;53.670;8.676;2023-05-10T11:26:30;2.97;;;2.67;;
1649;SDS011;822;53.670;8.676;2023-05-10T11:28:59;2.37;;;2.10;;
1649;SDS011;822;53.670;8.676;2023-05-10T11:31:32;3.37;;;2.27;;
1649;SDS011;822;53.670;8.676;2023-05-10T11:33:59;2.23;;;2.03;;
1649;SDS011;822;53.670;8.676;2023-05-10T11:36:28;3.10;;;2.63;;
1649;SDS011;822;53.670;8.676;2023-05-10T11:39:01;2.00;;;1.90;;
1649;SDS011;822;53.670;8.676;2023-05-10T11:41:31;2.00;;;1.90;;
1649;SDS011;822;53.670;8.676;2023-05-10T11:43:58;3.10;;;1.50;;
1649;SDS011;822;53.670;8.676;2023-05-10T11:46:26;2.03;;;1.93;;
1649;SDS011;822;53.670;8.676;2023-05-10T11:48:57;2.07;;;1.87;;
1649;SDS011;822;53.670;8.676;2023-05-10T11:51:26;1.87;;;1.77;;
1649;SDS011;822;53.670;8.676;2023-05-10T11:53:55;1.30;;;1.30;;
1649;SDS011;822;53.670;8.676;2023-05-10T11:56:22;1.77;;;1.67;;
1649;SDS011;822;53.670;8.676;2023-05-10T11:58:54;2.03;;;1.47;;
1649;SDS011;822;53.670;8.676;2023-05-10T12:01:22;1.80;;;1.70;;
1649;SDS011;822;53.670;8.676;2023-05-10T12:03:51;1.40;;;1.30;;
1649;SDS011;822;53.670;8.676;2023-05-10T12:06:25;1.20;;;1.20;;
1649;SDS011;822;53.670;8.676;2023-05-10T12:08:53;2.17;;;1.97;;
1649;SDS011;822;53.670;8.676;2023-05-10T12:11:24;1.70;;;1.60;;
1649;SDS011;822;53.670;8.676;2023-05-10T12:13:52;1.87;;;1.77;;
1649;SDS011;822;53.670;8.676;2023-05-10T12:16:20;1.67;;;1.57;;
1649;SDS011;822;53.670;8.676;2023-05-10T12:18:49;1.67;;;1.57;;
1649;SDS011;822;53.670;8.676;2023-05-10T12:21:17;1.47;;;1.37;;
1649;SDS011;822;53.670;8.676;2023-05-10T12:23:47;1.80;;;1.70;;
1649;SDS011;822;53.670;8.676;2023-05-10T12:26:16;2.37;;;2.17;;
1649;SDS011;822;53.670;8.676;2023-05-10T12:28:44;2.20;;;2.00;;
1649;SDS011;822;53.670;8.676;2023-05-10T12:31:11;4.83;;;1.70;;
1649;SDS011;822;53.670;8.676;2023-05-10T12:33:49;1.87;;;1.77;;
1649;SDS011;822;53.670;8.676;2023-05-10T12:36:16;1.77;;;1.67;;
1649;SDS011;822;53.670;8.676;2023-05-10T12:38:50;1.67;;;1.57;;
1649;SDS011;822;53.670;8.676;2023-05-10T12:41:28;1.63;;;1.53;;
1649;SDS011;822;53.670;8.676;2023-05-10T12:43:55;1.60;;;1.50;;
1649;SDS011;822;53.670;8.676;2023-05-10T12:46:22;2.07;;;1.97;;
1649;SDS011;822;53.670;8.676;2023-05-10T12:48:50;1.50;;;1.40;;
1649;SDS011;822;53.670;8.676;2023-05-10T12:51:20;1.83;;;1.73;;
1649;SDS011;822;53.670;8.676;2023-05-10T12:53:47;2.67;;;2.47;;
1649;SDS011;822;53.670;8.676;2023-05-10T12:56:16;1.63;;;1.53;;
1649;SDS011;822;53.670;8.676;2023-05-10T12:58:43;2.23;;;2.03;;
1649;SDS011;822;53.670;8.676;2023-05-10T13:01:13;1.90;;;1.80;;
1649;SDS011;822;53.670;8.676;2023-05-10T13:03:40;2.20;;;2.03;;
1649;SDS011;822;53.670;8.676;2023-05-10T13:06:08;2.30;;;2.10;;
1649;SDS011;822;53.670;8.676;2023-05-10T13:08:41;1.87;;;1.77;;
1649;SDS011;822;53.670;8.676;2023-05-10T13:11:08;2.60;;;2.23;;
1649;SDS011;822;53.670;8.676;2023-05-10T13:13:37;2.60;;;2.37;;
1649;SDS011;822;53.670;8.676;2023-05-10T13:16:04;3.20;;;2.90;;
1649;SDS011;822;53.670;8.676;2023-05-10T13:18:35;2.57;;;2.37;;
1649;SDS011;822;53.670;8.676;2023-05-10T13:21:05;2.37;;;2.17;;
1649;SDS011;822;53.670;8.676;2023-05-10T13:23:32;2.77;;;2.57;;
1649;SDS011;822;53.670;8.676;2023-05-10T13:25:59;2.73;;;2.53;;
1649;SDS011;822;53.670;8.676;2023-05-10T13:28:27;2.70;;;2.50;;
1649;SDS011;822;53.670;8.676;2023-05-10T13:30:56;3.20;;;2.57;;
1649;SDS011;822;53.670;8.676;2023-05-10T13:33:25;3.80;;;3.00;;
1649;SDS011;822;53.670;8.676;2023-05-10T13:35:52;3.63;;;3.33;;
1649;SDS011;822;53.670;8.676;2023-05-10T13:38:19;2.90;;;2.70;;
1649;SDS011;822;53.670;8.676;2023-05-10T13:40:46;2.03;;;1.83;;
1649;SDS011;822;53.670;8.676;2023-05-10T13:43:13;3.07;;;2.80;;
1649;SDS011;822;53.670;8.676;2023-05-10T13:45:40;3.03;;;2.57;;
1649;SDS011;822;53.670;8.676;2023-05-10T13:48:08;2.63;;;2.43;;
1649;SDS011;822;53.670;8.676;2023-05-10T13:50:35;3.80;;;3.30;;
1649;SDS011;822;53.670;8.676;2023-05-10T13:53:03;2.40;;;2.13;;
1649;SDS011;822;53.670;8.676;2023-05-10T13:55:30;1.63;;;1.53;;
1649;SDS011;822;53.670;8.676;2023-05-10T13:57:57;2.17;;;2.03;;
1649;SDS011;822;53.670;8.676;2023-05-10T14:00:28;1.87;;;1.30;;
1649;SDS011;822;53.670;8.676;2023-05-10T14:02:55;1.20;;;1.10;;
1649;SDS011;822;53.670;8.676;2023-05-10T14:05:24;0.90;;;0.90;;
1649;SDS011;822;53.670;8.676;2023-05-10T14:07:51;0.97;;;0.97;;
1649;SDS011;822;53.670;8.676;2023-05-10T14:10:18;1.23;;;1.23;;
1649;SDS011;822;53.670;8.676;2023-05-10T14:12:46;1.07;;;1.07;;
1649;SDS011;822;53.670;8.676;2023-05-10T14:15:13;1.57;;;1.47;;
1649;SDS011;822;53.670;8.676;2023-05-10T14:17:40;0.93;;;0.87;;
1649;SDS011;822;53.670;8.676;2023-05-10T14:20:07;0.90;;;0.90;;
1649;SDS011;822;53.670;8.676;2023-05-10T14:22:36;0.77;;;0.77;;
1649;SDS011;822;53.670;8.676;2023-05-10T14:25:04;0.90;;;0.90;;
1649;SDS011;822;53.670;8.676;2023-05-10T14:27:31;0.80;;;0.80;;
1649;SDS011;822;53.670;8.676;2023-05-10T14:29:58;0.70;;;0.70;;
1649;SDS011;822;53.670;8.676;2023-05-10T14:32:26;1.23;;;1.23;;
1649;SDS011;822;53.670;8.676;2023-05-10T14:34:53;0.70;;;0.70;;
1649;SDS011;822;53.670;8.676;2023-05-10T14:37:20;1.60;;;0.70;;
1649;SDS011;822;53.670;8.676;2023-05-10T14:39:49;0.70;;;0.70;;
1649;SDS011;822;53.670;8.676;2023-05-10T14:42:17;0.60;;;0.60;;
1649;SDS011;822;53.670;8.676;2023-05-10T14:44:44;0.53;;;0.53;;
1649;SDS011;822;53.670;8.676;2023-05-10T14:47:11;0.60;;;0.60;;
1649;SDS011;822;53.670;8.676;2023-05-10T14:49:38;0.70;;;0.63;;
1649;SDS011;822;53.670;8.676;2023-05-10T14:52:05;0.50;;;0.50;;
1649;SDS011;822;53.670;8.676;2023-05-10T14:54:33;0.47;;;0.47;;
1649;SDS011;822;53.670;8.676;2023-05-10T14:57:01;0.73;;;0.73;;
1649;SDS011;822;53.670;8.676;2023-05-10T14:59:28;0.70;;;0.70;;
1649;SDS011;822;53.670;8.676;2023-05-10T15:01:55;0.60;;;0.60;;
1649;SDS011;822;53.670;8.676;2023-05-10T15:04:23;0.60;;;0.60;;
1649;SDS011;822;53.670;8.676;2023-05-10T15:06:50;0.50;;;0.50;;
1649;SDS011;822;53.670;8.676;2023-05-10T15:09:17;0.50;;;0.40;;
1649;SDS011;822;53.670;8.676;2023-05-10T15:11:45;0.40;;;0.40;;
1649;SDS011;822;53.670;8.676;2023-05-10T15:14:13;0.50;;;0.50;;
1649;SDS011;822;53.670;8.676;2023-05-10T15:16:40;0.40;;;0.40;;
1649;SDS011;822;53.670;8.676;2023-05-10T15:19:07;0.53;;;0.50;;
1649;SDS011;822;53.670;8.676;2023-05-10T15:21:34;0.50;;;0.50;;
1649;SDS011;822;53.670;8.676;2023-05-10T15:24:05;0.67;;;0.67;;
1649;SDS011;822;53.670;8.676;2023-05-10T15:26:37;0.70;;;0.70;;
1649;SDS011;822;53.670;8.676;2023-05-10T15:29:04;1.40;;;0.67;;
1649;SDS011;822;53.670;8.676;2023-05-10T15:31:32;0.50;;;0.50;;
1649;SDS011;822;53.670;8.676;2023-05-10T15:34:01;0.80;;;0.80;;
1649;SDS011;822;53.670;8.676;2023-05-10T15:36:28;1.27;;;1.17;;
1649;SDS011;822;53.670;8.676;2023-05-10T15:38:55;1.07;;;0.93;;
1649;SDS011;822;53.670;8.676;2023-05-10T15:41:22;1.63;;;1.53;;
1649;SDS011;822;53.670;8.676;2023-05-10T15:43:50;1.90;;;1.50;;